createdAt,value
2017-04-02T19:25:42.981Z,13.79
2017-04-02T19:26:40.775Z,12.24
2017-04-02T19:27:38.560Z,12.97
2017-04-02T19:28:36.325Z,12.83
2017-04-02T19:29:34.097Z,14.54
2017-04-02T19:30:31.881Z,13.06
2017-04-02T19:31:29.669Z,13.49
2017-04-02T19:32:27.460Z,12.49
2017-04-02T19:33:25.260Z,14.24
2017-04-02T19:34:23.036Z,13.19
2017-04-02T19:35:20.817Z,13.59
2017-04-02T19:36:18.599Z,12.33
2017-04-02T19:37:16.363Z,12.14
2017-04-02T19:38:14.180Z,12.59
2017-04-02T19:39:12.097Z,14.21
2017-04-02T19:40:09.898Z,14.80
2017-04-02T19:41:07.692Z,12.33
2017-04-02T19:42:05.470Z,13.01
2017-04-02T19:43:03.309Z,13.04
2017-04-02T19:44:01.091Z,14.04
2017-04-02T19:44:59.364Z,13.00
2017-04-02T19:45:57.153Z,13.57
2017-04-02T19:46:54.961Z,13.23
2017-04-02T19:47:52.749Z,14.63
2017-04-02T19:48:50.525Z,14.11
2017-04-02T19:49:48.341Z,12.54
2017-04-02T19:50:46.198Z,13.36
2017-04-02T19:51:44.020Z,13.47
2017-04-02T19:52:41.929Z,13.13
2017-04-02T19:53:39.726Z,13.44
2017-04-02T19:54:37.501Z,13.84
2017-04-02T19:55:35.302Z,13.51
2017-04-02T19:56:33.173Z,13.91
2017-04-02T19:57:30.965Z,12.83
2017-04-02T19:58:28.745Z,13.76
2017-04-02T19:59:26.555Z,14.57
2017-04-02T20:00:24.398Z,12.73
2017-04-02T20:01:22.214Z,13.44
2017-04-02T20:02:22.025Z,14.74
2017-04-02T20:03:19.838Z,13.61
2017-04-02T20:04:17.638Z,13.41
2017-04-02T20:05:15.434Z,13.51
2017-04-02T20:06:13.197Z,14.21
2017-04-02T20:07:10.997Z,13.00
2017-04-02T20:08:08.793Z,13.60
2017-04-02T20:09:06.580Z,13.61
2017-04-02T20:10:05.107Z,13.00
2017-04-02T20:11:02.944Z,12.39
2017-04-02T20:12:00.761Z,11.90
2017-04-02T20:12:58.554Z,13.47
2017-04-02T20:13:56.369Z,13.13
2017-04-02T20:14:54.163Z,12.31
2017-04-02T20:15:51.937Z,12.64
2017-04-02T20:16:49.727Z,11.63
2017-04-02T20:17:47.521Z,12.83
2017-04-02T20:18:45.302Z,12.14
2017-04-02T20:19:43.183Z,13.19
2017-04-02T20:20:41.076Z,12.16
2017-04-02T20:21:38.888Z,12.06
2017-04-02T20:22:36.678Z,12.33
2017-04-02T20:23:34.643Z,12.50
2017-04-02T20:24:33.341Z,12.39
2017-04-02T20:25:32.423Z,12.91
2017-04-02T20:26:31.456Z,11.56
2017-04-02T20:27:29.265Z,12.33
2017-04-02T20:28:27.079Z,12.43
2017-04-02T20:29:25.121Z,11.79
2017-04-02T20:30:22.907Z,11.33
2017-04-02T20:31:20.718Z,11.69
2017-04-02T20:32:18.505Z,11.13
2017-04-02T20:33:16.387Z,12.56
2017-04-02T20:34:14.172Z,10.40
2017-04-02T20:35:11.973Z,11.07
2017-04-02T20:36:09.793Z,11.50
2017-04-02T20:37:07.625Z,11.40
2017-04-02T20:38:05.747Z,11.99
2017-04-02T20:39:04.178Z,12.01
2017-04-02T20:40:01.960Z,11.77
2017-04-02T20:40:59.851Z,12.87
2017-04-02T20:41:58.378Z,12.09
2017-04-02T20:42:56.176Z,12.29
2017-04-02T20:43:53.963Z,14.00
2017-04-02T20:44:51.801Z,12.87
2017-04-02T20:45:49.602Z,11.97
2017-04-02T20:46:47.392Z,14.61
2017-04-02T20:47:45.209Z,14.36
2017-04-02T20:48:42.995Z,12.96
2017-04-02T20:49:40.781Z,12.14
2017-04-02T20:50:38.570Z,12.51
2017-04-02T20:51:36.378Z,12.40
2017-04-02T20:52:34.922Z,13.20
2017-04-02T20:53:32.756Z,11.47
2017-04-02T20:54:30.547Z,12.43
2017-04-02T20:55:28.346Z,12.76
2017-04-02T20:56:26.160Z,12.10
2017-04-02T20:57:24.749Z,11.93
2017-04-02T20:58:23.118Z,10.89
2017-04-02T20:59:21.153Z,11.16
2017-04-02T21:00:19.943Z,11.79
2017-04-02T21:01:17.721Z,11.44
2017-04-02T21:02:15.525Z,11.03
2017-04-02T21:03:13.289Z,11.26
2017-04-02T21:04:11.061Z,11.57
2017-04-02T21:05:08.833Z,12.04
2017-04-02T21:06:06.635Z,11.53
2017-04-02T21:07:04.448Z,11.74
2017-04-02T21:08:02.276Z,12.14
2017-04-02T21:09:00.061Z,12.70
2017-04-02T21:09:57.848Z,11.43
2017-04-02T21:10:55.638Z,12.84
2017-04-02T21:11:53.409Z,13.23
2017-04-02T21:12:51.211Z,12.31
2017-04-02T21:13:49.022Z,10.81
2017-04-02T21:14:46.821Z,11.69
2017-04-02T21:15:44.589Z,11.17
2017-04-02T21:16:42.650Z,10.60
2017-04-02T21:17:40.434Z,11.70
2017-04-02T21:18:38.249Z,11.20
2017-04-02T21:19:36.057Z,11.81
2017-04-02T21:20:34.585Z,12.14
2017-04-02T21:21:32.413Z,10.63
2017-04-02T21:22:30.242Z,10.63
2017-04-02T21:23:28.054Z,10.81
2017-04-02T21:24:25.897Z,10.41
2017-04-02T21:25:23.713Z,10.56
2017-04-02T21:26:21.489Z,11.14
2017-04-02T21:27:19.281Z,10.30
2017-04-02T21:28:17.077Z,10.99
2017-04-02T21:29:15.593Z,10.80
2017-04-02T21:30:13.405Z,10.17
2017-04-02T21:31:11.204Z,11.26
2017-04-02T21:32:09.074Z,9.60
2017-04-02T21:33:06.925Z,10.00
2017-04-02T21:34:04.709Z,10.66
2017-04-02T21:35:02.502Z,11.83
2017-04-02T21:36:00.302Z,10.96
2017-04-02T21:36:58.825Z,10.84
2017-04-02T21:37:56.589Z,10.33
2017-04-02T21:38:54.421Z,11.39
2017-04-02T21:39:52.191Z,11.01
2017-04-02T21:40:50.745Z,12.17
2017-04-02T21:41:48.530Z,11.49
2017-04-02T21:42:46.326Z,11.11
2017-04-02T21:43:44.117Z,10.41
2017-04-02T21:44:42.000Z,10.56
2017-04-02T21:45:39.826Z,10.77
2017-04-02T21:46:37.712Z,9.91
2017-04-02T21:47:35.533Z,11.23
2017-04-02T21:48:33.342Z,10.93
2017-04-02T21:49:31.138Z,10.26
2017-04-02T21:50:29.014Z,12.30
2017-04-02T21:51:26.877Z,11.50
2017-04-02T21:52:24.661Z,10.63
2017-04-02T21:53:22.485Z,10.31
2017-04-02T21:54:20.290Z,10.23
2017-04-02T21:55:18.073Z,11.74
2017-04-02T21:56:15.867Z,11.46
2017-04-02T21:57:13.698Z,10.74
2017-04-02T21:58:11.489Z,11.03
2017-04-02T21:59:09.275Z,10.84
2017-04-02T22:00:07.060Z,12.21
2017-04-02T22:01:04.940Z,10.94
2017-04-02T22:02:02.833Z,11.24
2017-04-02T22:03:01.370Z,10.44
2017-04-02T22:03:59.153Z,11.11
2017-04-02T22:04:57.157Z,10.81
2017-04-02T22:05:54.958Z,10.47
2017-04-02T22:06:52.806Z,10.29
2017-04-02T22:07:50.668Z,10.23
2017-04-02T22:08:48.465Z,12.04
2017-04-02T22:09:46.254Z,11.26
2017-04-02T22:10:44.011Z,10.27
2017-04-02T22:11:41.888Z,10.73
2017-04-02T22:12:39.727Z,9.87
2017-04-02T22:13:37.522Z,10.47
2017-04-02T22:14:35.317Z,10.37
2017-04-02T22:15:33.854Z,10.39
2017-04-02T22:16:31.641Z,10.46
2017-04-02T22:17:29.421Z,10.44
2017-04-02T22:18:27.230Z,9.99
2017-04-02T22:19:25.071Z,12.20
2017-04-02T22:20:22.841Z,10.10
2017-04-02T22:21:20.675Z,11.46
2017-04-02T22:22:18.478Z,10.14
2017-04-02T22:23:16.269Z,10.66
2017-04-02T22:24:14.065Z,11.27
2017-04-02T22:25:11.843Z,10.34
2017-04-02T22:26:10.379Z,10.97
2017-04-02T22:27:08.162Z,10.69
2017-04-02T22:28:06.029Z,10.99
2017-04-02T22:29:03.852Z,10.96
2017-04-02T22:30:01.653Z,10.44
2017-04-02T22:30:59.469Z,10.04
2017-04-02T22:31:57.302Z,10.80
2017-04-02T22:32:55.081Z,10.50
2017-04-02T22:33:52.860Z,11.21
2017-04-02T22:34:50.660Z,10.79
2017-04-02T22:35:48.437Z,9.99
2017-04-02T22:36:46.271Z,10.80
2017-04-02T22:37:44.058Z,9.17
2017-04-02T22:38:41.842Z,9.83
2017-04-02T22:39:39.633Z,10.41
2017-04-02T22:40:37.413Z,9.56
2017-04-02T22:41:35.211Z,10.53
2017-04-02T22:42:32.979Z,7.63
2017-04-02T22:43:31.521Z,7.37
2017-04-02T22:44:29.286Z,7.43
2017-04-02T22:45:27.070Z,7.93
2017-04-02T22:46:24.857Z,7.27
2017-04-02T22:47:22.641Z,6.50
2017-04-02T22:48:20.417Z,7.07
2017-04-02T22:49:18.180Z,7.53
2017-04-02T22:50:15.965Z,6.54
2017-04-02T22:51:13.753Z,6.21
2017-04-02T22:52:11.621Z,6.99
2017-04-02T22:53:09.404Z,6.39
2017-04-02T22:54:07.225Z,6.79
2017-04-02T22:55:04.997Z,6.66
2017-04-02T22:56:02.796Z,5.44
2017-04-02T22:57:00.581Z,5.84
2017-04-02T22:57:58.350Z,6.17
2017-04-02T22:58:56.165Z,6.37
2017-04-02T22:59:53.949Z,5.91
2017-04-02T23:00:51.749Z,6.43
2017-04-02T23:01:49.530Z,6.31
2017-04-02T23:02:47.315Z,5.50
2017-04-02T23:03:45.112Z,5.29
2017-04-02T23:04:42.870Z,5.47
2017-04-02T23:05:40.645Z,6.04
2017-04-02T23:06:39.173Z,6.06
2017-04-02T23:07:36.953Z,6.13
2017-04-02T23:08:34.833Z,5.50
2017-04-02T23:09:32.614Z,5.91
2017-04-02T23:10:30.401Z,5.54
2017-04-02T23:11:28.177Z,5.41
2017-04-02T23:12:25.953Z,5.36
2017-04-02T23:13:23.776Z,5.26
2017-04-02T23:14:22.297Z,5.50
2017-04-02T23:15:20.335Z,5.67
2017-04-02T23:16:18.137Z,6.00
2017-04-02T23:17:15.918Z,5.57
2017-04-02T23:18:13.752Z,5.63
2017-04-02T23:19:11.570Z,5.19
2017-04-02T23:20:09.374Z,5.26
2017-04-02T23:21:07.195Z,5.99
2017-04-02T23:22:04.962Z,5.63
2017-04-02T23:23:02.785Z,5.90
2017-04-02T23:24:00.600Z,5.17
2017-04-02T23:24:58.460Z,4.91
2017-04-02T23:25:56.253Z,5.23
2017-04-02T23:26:54.028Z,5.54
2017-04-02T23:27:52.566Z,5.21
2017-04-02T23:28:50.366Z,5.77
2017-04-02T23:29:48.148Z,5.67
2017-04-02T23:30:45.941Z,5.59
2017-04-02T23:31:43.738Z,5.47
2017-04-02T23:32:41.547Z,6.03
2017-04-02T23:33:39.344Z,5.21
2017-04-02T23:34:37.127Z,6.14
2017-04-02T23:35:34.904Z,5.16
2017-04-02T23:36:33.418Z,5.56
2017-04-02T23:37:31.207Z,5.27
2017-04-02T23:38:28.974Z,5.76
2017-04-02T23:39:27.494Z,5.47
2017-04-02T23:40:25.287Z,5.80
2017-04-02T23:41:23.053Z,5.40
2017-04-02T23:42:20.826Z,5.06
2017-04-02T23:43:18.620Z,5.64
2017-04-02T23:44:16.406Z,5.94
2017-04-02T23:45:14.190Z,5.74
2017-04-02T23:46:11.966Z,4.81
2017-04-02T23:47:09.721Z,4.87
2017-04-02T23:48:07.491Z,5.66
2017-04-02T23:49:05.267Z,5.36
2017-04-02T23:50:03.117Z,5.31
2017-04-02T23:51:00.921Z,5.44
2017-04-02T23:51:58.721Z,5.66
2017-04-02T23:52:56.501Z,5.43
2017-04-02T23:53:54.305Z,5.60
2017-04-02T23:54:52.128Z,5.71
2017-04-02T23:55:49.917Z,5.27
2017-04-02T23:56:47.728Z,5.31
2017-04-02T23:57:45.525Z,5.26
2017-04-02T23:58:43.326Z,4.46
2017-04-02T23:59:41.137Z,5.36
